sensor_id;sensor_type;location;lat;lon;timestamp;temperature;humidity
22112;DHT22;11222;50.872;4.312;2022-12-05T00:00:13;3.20;99.90
22112;DHT22;11222;50.872;4.312;2022-12-05T00:02:39;3.20;99.90
22112;DHT22;11222;50.872;4.312;2022-12-05T00:05:05;3.30;99.90
22112;DHT22;11222;50.872;4.312;2022-12-05T00:07:31;3.30;99.90
22112;DHT22;11222;50.872;4.312;2022-12-05T00:09:56;3.30;99.90
22112;DHT22;11222;50.872;4.312;2022-12-05T00:12:22;3.20;99.90
22112;DHT22;11222;50.872;4.312;2022-12-05T00:14:48;3.20;99.90
22112;DHT22;11222;50.872;4.312;2022-12-05T00:17:14;3.30;99.90
22112;DHT22;11222;50.872;4.312;2022-12-05T00:19:39;3.20;99.90
22112;DHT22;11222;50.872;4.312;2022-12-05T00:22:05;3.30;99.90
22112;DHT22;11222;50.872;4.312;2022-12-05T00:24:31;3.40;99.90
22112;DHT22;11222;50.872;4.312;2022-12-05T00:26:56;3.30;99.90
22112;DHT22;11222;50.872;4.312;2022-12-05T00:29:22;3.30;99.90
22112;DHT22;11222;50.872;4.312;2022-12-05T00:31:48;3.20;99.90
22112;DHT22;11222;50.872;4.312;2022-12-05T00:34:13;3.20;99.90
22112;DHT22;11222;50.872;4.312;2022-12-05T00:36:39;3.20;99.90
22112;DHT22;11222;50.872;4.312;2022-12-05T00:39:08;3.30;99.90
22112;DHT22;11222;50.872;4.312;2022-12-05T00:41:34;3.20;99.90
22112;DHT22;11222;50.872;4.312;2022-12-05T00:44:01;3.00;99.90
22112;DHT22;11222;50.872;4.312;2022-12-05T00:46:29;3.20;99.90
22112;DHT22;11222;50.872;4.312;2022-12-05T00:48:56;3.40;99.90
22112;DHT22;11222;50.872;4.312;2022-12-05T00:51:34;3.40;99.90
22112;DHT22;11222;50.872;4.312;2022-12-05T00:54:02;3.30;99.90
22112;DHT22;11222;50.872;4.312;2022-12-05T00:56:29;3.30;99.90
22112;DHT22;11222;50.872;4.312;2022-12-05T00:58:56;3.40;99.90
22112;DHT22;11222;50.872;4.312;2022-12-05T01:03:53;3.30;99.90
22112;DHT22;11222;50.872;4.312;2022-12-05T01:06:19;3.40;99.90
22112;DHT22;11222;50.872;4.312;2022-12-05T01:08:45;3.40;99.90
22112;DHT22;11222;50.872;4.312;2022-12-05T01:11:13;3.40;99.90
22112;DHT22;11222;50.872;4.312;2022-12-05T01:13:39;3.30;99.90
22112;DHT22;11222;50.872;4.312;2022-12-05T01:16:05;3.30;99.90
22112;DHT22;11222;50.872;4.312;2022-12-05T01:18:32;3.30;99.90
22112;DHT22;11222;50.872;4.312;2022-12-05T01:20:57;3.20;99.90
22112;DHT22;11222;50.872;4.312;2022-12-05T01:23:23;3.30;99.90
22112;DHT22;11222;50.872;4.312;2022-12-05T01:25:50;3.20;99.90
22112;DHT22;11222;50.872;4.312;2022-12-05T01:28:17;3.40;99.90
22112;DHT22;11222;50.872;4.312;2022-12-05T01:30:45;3.50;99.90
22112;DHT22;11222;50.872;4.312;2022-12-05T01:33:13;3.30;99.90
22112;DHT22;11222;50.872;4.312;2022-12-05T01:35:40;3.40;99.90
22112;DHT22;11222;50.872;4.312;2022-12-05T01:38:07;3.40;99.90
22112;DHT22;11222;50.872;4.312;2022-12-05T01:40:35;3.50;99.90
22112;DHT22;11222;50.872;4.312;2022-12-05T01:43:01;3.50;99.90
22112;DHT22;11222;50.872;4.312;2022-12-05T01:45:36;3.40;99.90
22112;DHT22;11222;50.872;4.312;2022-12-05T01:48:05;3.40;99.90
22112;DHT22;11222;50.872;4.312;2022-12-05T01:50:34;3.40;99.90
22112;DHT22;11222;50.872;4.312;2022-12-05T01:53:01;3.50;99.90
22112;DHT22;11222;50.872;4.312;2022-12-05T01:55:28;3.40;99.90
22112;DHT22;11222;50.872;4.312;2022-12-05T01:57:55;3.40;99.90
22112;DHT22;11222;50.872;4.312;2022-12-05T02:00:22;3.40;99.90
22112;DHT22;11222;50.872;4.312;2022-12-05T02:02:51;3.40;99.90
22112;DHT22;11222;50.872;4.312;2022-12-05T02:05:22;3.50;99.90
22112;DHT22;11222;50.872;4.312;2022-12-05T02:07:50;3.50;99.90
22112;DHT22;11222;50.872;4.312;2022-12-05T02:10:16;3.50;99.90
22112;DHT22;11222;50.872;4.312;2022-12-05T02:12:42;3.40;99.90
22112;DHT22;11222;50.872;4.312;2022-12-05T02:15:46;3.40;99.90
22112;DHT22;11222;50.872;4.312;2022-12-05T02:18:38;3.40;99.90
22112;DHT22;11222;50.872;4.312;2022-12-05T02:23:56;3.50;99.90
22112;DHT22;11222;50.872;4.312;2022-12-05T02:32:16;3.60;99.90
22112;DHT22;11222;50.872;4.312;2022-12-05T02:37:31;3.60;99.90
22112;DHT22;11222;50.872;4.312;2022-12-05T02:40:13;3.50;99.90
22112;DHT22;11222;50.872;4.312;2022-12-05T02:45:14;3.50;99.90
22112;DHT22;11222;50.872;4.312;2022-12-05T02:47:44;3.60;99.90
22112;DHT22;11222;50.872;4.312;2022-12-05T02:50:14;3.60;99.90
22112;DHT22;11222;50.872;4.312;2022-12-05T02:52:42;3.60;99.90
22112;DHT22;11222;50.872;4.312;2022-12-05T02:55:10;3.50;99.90
22112;DHT22;11222;50.872;4.312;2022-12-05T02:57:37;3.50;99.90
22112;DHT22;11222;50.872;4.312;2022-12-05T03:00:04;3.60;99.90
22112;DHT22;11222;50.872;4.312;2022-12-05T03:02:33;3.50;99.90
22112;DHT22;11222;50.872;4.312;2022-12-05T03:05:21;3.50;99.90
22112;DHT22;11222;50.872;4.312;2022-12-05T03:07:52;3.60;99.90
22112;DHT22;11222;50.872;4.312;2022-12-05T03:10:21;3.50;99.90
22112;DHT22;11222;50.872;4.312;2022-12-05T03:12:51;3.50;99.90
22112;DHT22;11222;50.872;4.312;2022-12-05T03:15:24;3.50;99.90
22112;DHT22;11222;50.872;4.312;2022-12-05T03:17:55;3.50;99.90
22112;DHT22;11222;50.872;4.312;2022-12-05T03:20:27;3.50;99.90
22112;DHT22;11222;50.872;4.312;2022-12-05T03:22:59;3.70;99.90
22112;DHT22;11222;50.872;4.312;2022-12-05T03:25:34;3.70;99.90
22112;DHT22;11222;50.872;4.312;2022-12-05T03:28:13;3.60;99.90
22112;DHT22;11222;50.872;4.312;2022-12-05T03:30:41;3.50;99.90
22112;DHT22;11222;50.872;4.312;2022-12-05T03:33:14;3.40;99.90
22112;DHT22;11222;50.872;4.312;2022-12-05T03:38:13;3.70;99.90
22112;DHT22;11222;50.872;4.312;2022-12-05T03:40:48;3.80;99.90
22112;DHT22;11222;50.872;4.312;2022-12-05T03:46:28;3.80;99.90
22112;DHT22;11222;50.872;4.312;2022-12-05T03:51:57;3.80;99.90
22112;DHT22;11222;50.872;4.312;2022-12-05T03:54:27;3.70;99.90
22112;DHT22;11222;50.872;4.312;2022-12-05T03:57:20;3.70;99.90
22112;DHT22;11222;50.872;4.312;2022-12-05T03:59:55;3.60;99.90
22112;DHT22;11222;50.872;4.312;2022-12-05T04:02:33;3.60;99.90
22112;DHT22;11222;50.872;4.312;2022-12-05T04:05:05;3.60;99.90
22112;DHT22;11222;50.872;4.312;2022-12-05T04:07:34;3.60;99.90
22112;DHT22;11222;50.872;4.312;2022-12-05T04:10:06;3.70;99.90
22112;DHT22;11222;50.872;4.312;2022-12-05T04:12:34;3.70;99.90
22112;DHT22;11222;50.872;4.312;2022-12-05T04:15:18;3.70;99.90
22112;DHT22;11222;50.872;4.312;2022-12-05T04:17:58;3.70;99.90
22112;DHT22;11222;50.872;4.312;2022-12-05T04:20:39;3.70;99.90
22112;DHT22;11222;50.872;4.312;2022-12-05T04:23:24;3.90;99.90
22112;DHT22;11222;50.872;4.312;2022-12-05T04:26:17;3.90;99.90
22112;DHT22;11222;50.872;4.312;2022-12-05T04:31:25;3.60;99.90
22112;DHT22;11222;50.872;4.312;2022-12-05T04:33:55;3.50;99.90
22112;DHT22;11222;50.872;4.312;2022-12-05T04:39:10;3.60;99.90
22112;DHT22;11222;50.872;4.312;2022-12-05T04:41:41;3.50;99.90
22112;DHT22;11222;50.872;4.312;2022-12-05T04:44:12;3.50;99.90
22112;DHT22;11222;50.872;4.312;2022-12-05T04:46:42;3.40;99.90
22112;DHT22;11222;50.872;4.312;2022-12-05T04:49:15;3.60;99.90
22112;DHT22;11222;50.872;4.312;2022-12-05T04:51:43;3.50;99.90
22112;DHT22;11222;50.872;4.312;2022-12-05T04:54:25;3.50;99.90
22112;DHT22;11222;50.872;4.312;2022-12-05T04:56:54;3.50;99.90
22112;DHT22;11222;50.872;4.312;2022-12-05T04:59:22;3.60;99.90
22112;DHT22;11222;50.872;4.312;2022-12-05T05:01:52;3.70;99.90
22112;DHT22;11222;50.872;4.312;2022-12-05T05:04:28;3.80;99.90
22112;DHT22;11222;50.872;4.312;2022-12-05T05:06:55;3.80;99.90
22112;DHT22;11222;50.872;4.312;2022-12-05T05:09:21;3.70;99.90
22112;DHT22;11222;50.872;4.312;2022-12-05T05:11:47;3.60;99.90
22112;DHT22;11222;50.872;4.312;2022-12-05T05:14:12;3.50;99.90
22112;DHT22;11222;50.872;4.312;2022-12-05T05:16:39;3.50;99.90
22112;DHT22;11222;50.872;4.312;2022-12-05T05:19:07;3.60;99.90
22112;DHT22;11222;50.872;4.312;2022-12-05T05:21:35;3.60;99.90
22112;DHT22;11222;50.872;4.312;2022-12-05T05:24:01;3.60;99.90
22112;DHT22;11222;50.872;4.312;2022-12-05T05:26:28;3.60;99.90
22112;DHT22;11222;50.872;4.312;2022-12-05T05:28:55;3.60;99.90
22112;DHT22;11222;50.872;4.312;2022-12-05T05:31:22;3.60;99.90
22112;DHT22;11222;50.872;4.312;2022-12-05T05:33:49;3.60;99.90
22112;DHT22;11222;50.872;4.312;2022-12-05T05:36:15;3.70;99.90
22112;DHT22;11222;50.872;4.312;2022-12-05T05:38:46;3.70;99.90
22112;DHT22;11222;50.872;4.312;2022-12-05T05:41:14;3.90;99.90
22112;DHT22;11222;50.872;4.312;2022-12-05T05:43:41;3.90;99.90
22112;DHT22;11222;50.872;4.312;2022-12-05T05:46:08;3.80;99.90
22112;DHT22;11222;50.872;4.312;2022-12-05T05:48:33;3.80;99.90
22112;DHT22;11222;50.872;4.312;2022-12-05T05:51:04;3.90;99.90
22112;DHT22;11222;50.872;4.312;2022-12-05T05:53:30;3.90;99.90
22112;DHT22;11222;50.872;4.312;2022-12-05T05:55:56;3.90;99.90
22112;DHT22;11222;50.872;4.312;2022-12-05T05:58:22;4.00;99.90
22112;DHT22;11222;50.872;4.312;2022-12-05T06:00:48;3.90;99.90
22112;DHT22;11222;50.872;4.312;2022-12-05T06:03:14;3.80;99.90
22112;DHT22;11222;50.872;4.312;2022-12-05T06:05:39;3.80;99.90
22112;DHT22;11222;50.872;4.312;2022-12-05T06:08:05;3.70;99.90
22112;DHT22;11222;50.872;4.312;2022-12-05T06:10:31;3.70;99.90
22112;DHT22;11222;50.872;4.312;2022-12-05T06:12:57;3.80;99.90
22112;DHT22;11222;50.872;4.312;2022-12-05T06:15:24;3.90;99.90
22112;DHT22;11222;50.872;4.312;2022-12-05T06:17:51;3.90;99.90
22112;DHT22;11222;50.872;4.312;2022-12-05T06:20:17;4.00;99.90
22112;DHT22;11222;50.872;4.312;2022-12-05T06:22:42;4.20;99.90
22112;DHT22;11222;50.872;4.312;2022-12-05T06:25:08;4.20;99.90
22112;DHT22;11222;50.872;4.312;2022-12-05T06:27:35;4.30;99.90
22112;DHT22;11222;50.872;4.312;2022-12-05T06:30:00;4.40;99.90
22112;DHT22;11222;50.872;4.312;2022-12-05T06:32:27;4.60;99.90
22112;DHT22;11222;50.872;4.312;2022-12-05T06:34:54;4.60;99.90
22112;DHT22;11222;50.872;4.312;2022-12-05T06:37:20;4.50;99.90
22112;DHT22;11222;50.872;4.312;2022-12-05T06:39:45;4.40;99.90
22112;DHT22;11222;50.872;4.312;2022-12-05T06:42:11;4.20;99.90
22112;DHT22;11222;50.872;4.312;2022-12-05T06:44:37;4.10;99.90
22112;DHT22;11222;50.872;4.312;2022-12-05T06:47:03;4.10;99.90
22112;DHT22;11222;50.872;4.312;2022-12-05T06:49:28;4.10;99.90
22112;DHT22;11222;50.872;4.312;2022-12-05T06:51:58;4.10;99.90
22112;DHT22;11222;50.872;4.312;2022-12-05T06:54:23;4.20;99.90
22112;DHT22;11222;50.872;4.312;2022-12-05T06:56:49;4.10;99.90
22112;DHT22;11222;50.872;4.312;2022-12-05T06:59:15;4.20;99.90
22112;DHT22;11222;50.872;4.312;2022-12-05T07:01:42;4.20;99.90
22112;DHT22;11222;50.872;4.312;2022-12-05T07:04:20;4.30;99.90
22112;DHT22;11222;50.872;4.312;2022-12-05T07:06:50;4.40;99.90
22112;DHT22;11222;50.872;4.312;2022-12-05T07:09:17;4.60;99.90
22112;DHT22;11222;50.872;4.312;2022-12-05T07:11:50;4.70;99.90
22112;DHT22;11222;50.872;4.312;2022-12-05T07:14:16;4.90;99.90
22112;DHT22;11222;50.872;4.312;2022-12-05T07:16:42;4.90;99.90
22112;DHT22;11222;50.872;4.312;2022-12-05T07:19:09;5.00;99.90
22112;DHT22;11222;50.872;4.312;2022-12-05T07:21:35;5.00;99.90
22112;DHT22;11222;50.872;4.312;2022-12-05T07:24:01;5.00;99.90
22112;DHT22;11222;50.872;4.312;2022-12-05T07:26:26;5.00;99.90
22112;DHT22;11222;50.872;4.312;2022-12-05T07:28:54;5.00;99.90
22112;DHT22;11222;50.872;4.312;2022-12-05T07:31:22;4.80;99.90
22112;DHT22;11222;50.872;4.312;2022-12-05T07:33:49;4.80;99.90
22112;DHT22;11222;50.872;4.312;2022-12-05T07:36:17;5.00;99.90
22112;DHT22;11222;50.872;4.312;2022-12-05T07:38:44;5.00;99.90
22112;DHT22;11222;50.872;4.312;2022-12-05T07:41:22;5.00;99.90
22112;DHT22;11222;50.872;4.312;2022-12-05T07:43:53;4.80;99.90
22112;DHT22;11222;50.872;4.312;2022-12-05T07:46:19;4.80;99.90
22112;DHT22;11222;50.872;4.312;2022-12-05T07:48:46;4.90;99.90
22112;DHT22;11222;50.872;4.312;2022-12-05T07:51:12;4.80;99.90
22112;DHT22;11222;50.872;4.312;2022-12-05T07:53:38;4.70;99.90
22112;DHT22;11222;50.872;4.312;2022-12-05T07:56:07;4.70;99.90
22112;DHT22;11222;50.872;4.312;2022-12-05T07:58:33;4.60;99.90
22112;DHT22;11222;50.872;4.312;2022-12-05T08:01:19;4.60;99.90
22112;DHT22;11222;50.872;4.312;2022-12-05T08:03:46;4.60;99.90
22112;DHT22;11222;50.872;4.312;2022-12-05T08:06:17;4.50;99.90
22112;DHT22;11222;50.872;4.312;2022-12-05T08:08:43;4.40;99.90
22112;DHT22;11222;50.872;4.312;2022-12-05T08:11:12;4.30;99.90
22112;DHT22;11222;50.872;4.312;2022-12-05T08:13:38;4.40;99.90
22112;DHT22;11222;50.872;4.312;2022-12-05T08:16:08;4.50;99.90
22112;DHT22;11222;50.872;4.312;2022-12-05T08:18:34;4.60;99.90
22112;DHT22;11222;50.872;4.312;2022-12-05T08:21:08;4.50;99.90
22112;DHT22;11222;50.872;4.312;2022-12-05T08:23:34;4.50;99.90
22112;DHT22;11222;50.872;4.312;2022-12-05T08:26:02;4.50;99.90
22112;DHT22;11222;50.872;4.312;2022-12-05T08:28:29;4.50;99.90
22112;DHT22;11222;50.872;4.312;2022-12-05T08:30:54;4.50;99.90
22112;DHT22;11222;50.872;4.312;2022-12-05T08:33:20;4.60;99.90
22112;DHT22;11222;50.872;4.312;2022-12-05T08:35:46;4.70;99.90
22112;DHT22;11222;50.872;4.312;2022-12-05T08:38:11;4.70;99.90
22112;DHT22;11222;50.872;4.312;2022-12-05T08:40:37;4.80;99.90
22112;DHT22;11222;50.872;4.312;2022-12-05T08:43:03;4.80;99.90
22112;DHT22;11222;50.872;4.312;2022-12-05T08:45:28;4.60;99.90
22112;DHT22;11222;50.872;4.312;2022-12-05T08:47:54;4.60;99.90
22112;DHT22;11222;50.872;4.312;2022-12-05T08:50:19;4.70;99.90
22112;DHT22;11222;50.872;4.312;2022-12-05T08:52:46;4.70;99.90
22112;DHT22;11222;50.872;4.312;2022-12-05T08:55:12;4.80;99.90
22112;DHT22;11222;50.872;4.312;2022-12-05T08:57:37;4.80;99.90
22112;DHT22;11222;50.872;4.312;2022-12-05T09:00:03;4.90;99.90
22112;DHT22;11222;50.872;4.312;2022-12-05T09:02:31;5.00;99.90
22112;DHT22;11222;50.872;4.312;2022-12-05T09:04:58;5.00;99.90
22112;DHT22;11222;50.872;4.312;2022-12-05T09:07:24;5.20;99.90
22112;DHT22;11222;50.872;4.312;2022-12-05T09:09:49;5.00;99.90
22112;DHT22;11222;50.872;4.312;2022-12-05T09:12:15;5.00;99.90
22112;DHT22;11222;50.872;4.312;2022-12-05T09:14:41;5.00;99.90
22112;DHT22;11222;50.872;4.312;2022-12-05T09:17:06;4.80;99.90
22112;DHT22;11222;50.872;4.312;2022-12-05T09:19:32;4.80;99.90
22112;DHT22;11222;50.872;4.312;2022-12-05T09:21:58;5.10;99.90
22112;DHT22;11222;50.872;4.312;2022-12-05T09:24:24;5.20;99.90
22112;DHT22;11222;50.872;4.312;2022-12-05T09:26:50;5.20;99.90
22112;DHT22;11222;50.872;4.312;2022-12-05T09:29:16;5.40;99.90
22112;DHT22;11222;50.872;4.312;2022-12-05T09:31:41;5.60;99.90
22112;DHT22;11222;50.872;4.312;2022-12-05T09:34:07;5.60;99.90
22112;DHT22;11222;50.872;4.312;2022-12-05T09:36:33;5.40;99.90
22112;DHT22;11222;50.872;4.312;2022-12-05T09:39:02;5.40;99.90
22112;DHT22;11222;50.872;4.312;2022-12-05T09:44:40;5.40;99.90
22112;DHT22;11222;50.872;4.312;2022-12-05T09:53:04;5.30;99.90
22112;DHT22;11222;50.872;4.312;2022-12-05T09:56:05;5.40;99.90
22112;DHT22;11222;50.872;4.312;2022-12-05T09:58:40;5.50;99.90
22112;DHT22;11222;50.872;4.312;2022-12-05T10:01:25;5.50;99.90
22112;DHT22;11222;50.872;4.312;2022-12-05T10:04:12;5.40;99.90
22112;DHT22;11222;50.872;4.312;2022-12-05T10:06:49;5.30;99.90
22112;DHT22;11222;50.872;4.312;2022-12-05T10:09:37;5.50;99.90
22112;DHT22;11222;50.872;4.312;2022-12-05T10:17:36;5.80;99.90
22112;DHT22;11222;50.872;4.312;2022-12-05T10:20:09;5.80;99.90
22112;DHT22;11222;50.872;4.312;2022-12-05T10:22:49;5.80;99.90
22112;DHT22;11222;50.872;4.312;2022-12-05T10:25:19;5.80;99.90
22112;DHT22;11222;50.872;4.312;2022-12-05T10:27:51;5.90;99.90
22112;DHT22;11222;50.872;4.312;2022-12-05T10:30:22;5.90;99.90
22112;DHT22;11222;50.872;4.312;2022-12-05T10:32:58;6.00;99.90
22112;DHT22;11222;50.872;4.312;2022-12-05T10:35:25;5.80;99.90
22112;DHT22;11222;50.872;4.312;2022-12-05T10:37:54;5.90;99.90
22112;DHT22;11222;50.872;4.312;2022-12-05T10:40:22;5.90;99.90
22112;DHT22;11222;50.872;4.312;2022-12-05T10:42:49;5.80;99.90
22112;DHT22;11222;50.872;4.312;2022-12-05T10:45:21;5.80;99.90
22112;DHT22;11222;50.872;4.312;2022-12-05T10:47:48;5.70;99.90
22112;DHT22;11222;50.872;4.312;2022-12-05T10:50:24;5.60;99.90
22112;DHT22;11222;50.872;4.312;2022-12-05T10:52:54;5.60;99.90
22112;DHT22;11222;50.872;4.312;2022-12-05T10:55:20;5.60;99.90
22112;DHT22;11222;50.872;4.312;2022-12-05T10:57:50;5.60;99.90
22112;DHT22;11222;50.872;4.312;2022-12-05T11:00:20;5.50;99.90
22112;DHT22;11222;50.872;4.312;2022-12-05T11:02:48;5.60;99.90
22112;DHT22;11222;50.872;4.312;2022-12-05T11:05:14;5.60;99.90
22112;DHT22;11222;50.872;4.312;2022-12-05T11:10:35;5.60;99.90
22112;DHT22;11222;50.872;4.312;2022-12-05T11:13:21;5.60;99.90
22112;DHT22;11222;50.872;4.312;2022-12-05T11:15:48;5.60;99.90
22112;DHT22;11222;50.872;4.312;2022-12-05T11:18:33;5.60;99.90
22112;DHT22;11222;50.872;4.312;2022-12-05T11:21:11;5.50;99.90
22112;DHT22;11222;50.872;4.312;2022-12-05T11:23:37;5.40;99.90
22112;DHT22;11222;50.872;4.312;2022-12-05T11:26:05;5.20;99.90
22112;DHT22;11222;50.872;4.312;2022-12-05T11:28:39;5.20;99.90
22112;DHT22;11222;50.872;4.312;2022-12-05T11:31:20;5.30;99.90
22112;DHT22;11222;50.872;4.312;2022-12-05T11:34:00;5.50;99.90
22112;DHT22;11222;50.872;4.312;2022-12-05T11:36:38;5.60;99.90
22112;DHT22;11222;50.872;4.312;2022-12-05T11:39:05;5.70;99.90
22112;DHT22;11222;50.872;4.312;2022-12-05T11:55:16;6.00;99.90
22112;DHT22;11222;50.872;4.312;2022-12-05T12:06:30;5.70;99.90
22112;DHT22;11222;50.872;4.312;2022-12-05T12:09:20;5.70;99.90
22112;DHT22;11222;50.872;4.312;2022-12-05T12:12:11;5.70;99.90
22112;DHT22;11222;50.872;4.312;2022-12-05T12:17:55;5.80;99.90
22112;DHT22;11222;50.872;4.312;2022-12-05T12:31:42;6.20;99.90
22112;DHT22;11222;50.872;4.312;2022-12-05T12:34:34;6.10;99.90
22112;DHT22;11222;50.872;4.312;2022-12-05T12:42:24;6.00;99.90
22112;DHT22;11222;50.872;4.312;2022-12-05T12:48:12;6.10;99.90
22112;DHT22;11222;50.872;4.312;2022-12-05T12:50:43;6.10;99.90
22112;DHT22;11222;50.872;4.312;2022-12-05T12:53:37;6.00;99.90
22112;DHT22;11222;50.872;4.312;2022-12-05T13:07:16;6.20;99.90
22112;DHT22;11222;50.872;4.312;2022-12-05T13:09:56;6.30;99.90
22112;DHT22;11222;50.872;4.312;2022-12-05T13:12:27;6.20;99.90
22112;DHT22;11222;50.872;4.312;2022-12-05T13:15:04;6.10;99.90
22112;DHT22;11222;50.872;4.312;2022-12-05T13:17:31;6.10;99.90
22112;DHT22;11222;50.872;4.312;2022-12-05T13:19:58;6.30;99.90
22112;DHT22;11222;50.872;4.312;2022-12-05T13:22:26;6.50;99.90
22112;DHT22;11222;50.872;4.312;2022-12-05T13:24:53;6.50;99.90
22112;DHT22;11222;50.872;4.312;2022-12-05T13:27:24;6.30;99.90
22112;DHT22;11222;50.872;4.312;2022-12-05T13:29:55;6.40;99.90
22112;DHT22;11222;50.872;4.312;2022-12-05T13:32:34;6.50;99.90
22112;DHT22;11222;50.872;4.312;2022-12-05T13:35:34;6.40;99.90
22112;DHT22;11222;50.872;4.312;2022-12-05T13:38:27;6.60;99.90
22112;DHT22;11222;50.872;4.312;2022-12-05T13:41:13;6.60;99.90
22112;DHT22;11222;50.872;4.312;2022-12-05T13:43:57;6.70;99.90
22112;DHT22;11222;50.872;4.312;2022-12-05T13:46:30;6.60;99.90
22112;DHT22;11222;50.872;4.312;2022-12-05T13:49:07;6.60;99.90
22112;DHT22;11222;50.872;4.312;2022-12-05T13:51:41;6.70;99.90
22112;DHT22;11222;50.872;4.312;2022-12-05T13:54:12;6.60;99.90
22112;DHT22;11222;50.872;4.312;2022-12-05T14:07:54;6.70;99.90
22112;DHT22;11222;50.872;4.312;2022-12-05T14:15:33;6.80;99.90
22112;DHT22;11222;50.872;4.312;2022-12-05T14:18:13;6.70;99.90
22112;DHT22;11222;50.872;4.312;2022-12-05T14:33:42;6.40;99.90
22112;DHT22;11222;50.872;4.312;2022-12-05T14:36:15;6.30;99.90
22112;DHT22;11222;50.872;4.312;2022-12-05T14:38:41;6.40;99.90
22112;DHT22;11222;50.872;4.312;2022-12-05T14:41:22;6.40;99.90
22112;DHT22;11222;50.872;4.312;2022-12-05T14:43:53;6.50;99.90
22112;DHT22;11222;50.872;4.312;2022-12-05T14:46:28;6.40;99.90
22112;DHT22;11222;50.872;4.312;2022-12-05T14:48:56;6.50;99.90
22112;DHT22;11222;50.872;4.312;2022-12-05T14:56:41;6.60;99.90
22112;DHT22;11222;50.872;4.312;2022-12-05T14:59:32;6.50;99.90
22112;DHT22;11222;50.872;4.312;2022-12-05T15:02:00;6.40;99.90
22112;DHT22;11222;50.872;4.312;2022-12-05T15:04:46;6.60;99.90
22112;DHT22;11222;50.872;4.312;2022-12-05T15:07:20;6.60;99.90
22112;DHT22;11222;50.872;4.312;2022-12-05T15:09:55;6.60;99.90
22112;DHT22;11222;50.872;4.312;2022-12-05T15:12:44;6.50;99.90
22112;DHT22;11222;50.872;4.312;2022-12-05T15:16:15;6.60;99.90
22112;DHT22;11222;50.872;4.312;2022-12-05T15:18:33;6.50;99.90
22112;DHT22;11222;50.872;4.312;2022-12-05T15:26:22;6.50;99.90
22112;DHT22;11222;50.872;4.312;2022-12-05T15:34:19;6.60;99.90
22112;DHT22;11222;50.872;4.312;2022-12-05T15:36:57;6.70;99.90
22112;DHT22;11222;50.872;4.312;2022-12-05T15:39:26;6.70;99.90
22112;DHT22;11222;50.872;4.312;2022-12-05T15:41:53;6.60;99.90
22112;DHT22;11222;50.872;4.312;2022-12-05T15:44:20;6.50;99.90
22112;DHT22;11222;50.872;4.312;2022-12-05T15:46:54;6.50;99.90
22112;DHT22;11222;50.872;4.312;2022-12-05T15:49:25;6.50;99.90
22112;DHT22;11222;50.872;4.312;2022-12-05T15:51:56;6.40;99.90
22112;DHT22;11222;50.872;4.312;2022-12-05T15:54:30;6.50;99.90
22112;DHT22;11222;50.872;4.312;2022-12-05T15:57:17;6.60;99.90
22112;DHT22;11222;50.872;4.312;2022-12-05T15:59:48;6.60;99.90
22112;DHT22;11222;50.872;4.312;2022-12-05T16:03:13;6.50;99.90
22112;DHT22;11222;50.872;4.312;2022-12-05T16:05:25;6.50;99.90
22112;DHT22;11222;50.872;4.312;2022-12-05T16:07:55;6.40;99.90
22112;DHT22;11222;50.872;4.312;2022-12-05T16:10:23;6.30;99.90
22112;DHT22;11222;50.872;4.312;2022-12-05T16:12:50;6.20;99.90
22112;DHT22;11222;50.872;4.312;2022-12-05T16:15:20;6.20;99.90
22112;DHT22;11222;50.872;4.312;2022-12-05T16:17:52;6.10;99.90
22112;DHT22;11222;50.872;4.312;2022-12-05T16:20:20;6.10;99.90
22112;DHT22;11222;50.872;4.312;2022-12-05T16:22:47;6.10;99.90
22112;DHT22;11222;50.872;4.312;2022-12-05T16:25:16;6.10;99.90
22112;DHT22;11222;50.872;4.312;2022-12-05T16:27:42;6.10;99.90
22112;DHT22;11222;50.872;4.312;2022-12-05T16:30:21;6.20;99.90
22112;DHT22;11222;50.872;4.312;2022-12-05T16:32:49;6.20;99.90
22112;DHT22;11222;50.872;4.312;2022-12-05T16:35:43;6.20;99.90
22112;DHT22;11222;50.872;4.312;2022-12-05T16:38:19;6.30;99.90
22112;DHT22;11222;50.872;4.312;2022-12-05T16:40:50;6.30;99.90
22112;DHT22;11222;50.872;4.312;2022-12-05T16:43:41;6.40;99.90
22112;DHT22;11222;50.872;4.312;2022-12-05T16:48:45;6.50;99.90
22112;DHT22;11222;50.872;4.312;2022-12-05T16:51:20;6.40;99.90
22112;DHT22;11222;50.872;4.312;2022-12-05T16:53:49;6.40;99.90
22112;DHT22;11222;50.872;4.312;2022-12-05T16:58:45;6.60;99.90
22112;DHT22;11222;50.872;4.312;2022-12-05T17:01:29;6.70;99.90
22112;DHT22;11222;50.872;4.312;2022-12-05T17:03:55;6.70;99.90
22112;DHT22;11222;50.872;4.312;2022-12-05T17:06:22;6.70;99.90
22112;DHT22;11222;50.872;4.312;2022-12-05T17:08:50;6.70;99.90
22112;DHT22;11222;50.872;4.312;2022-12-05T17:11:20;6.70;99.90
22112;DHT22;11222;50.872;4.312;2022-12-05T17:13:48;6.70;99.90
22112;DHT22;11222;50.872;4.312;2022-12-05T17:16:15;6.70;99.90
22112;DHT22;11222;50.872;4.312;2022-12-05T17:18:42;6.70;99.90
22112;DHT22;11222;50.872;4.312;2022-12-05T17:21:25;6.70;99.90
22112;DHT22;11222;50.872;4.312;2022-12-05T17:23:53;6.60;99.90
22112;DHT22;11222;50.872;4.312;2022-12-05T17:26:20;6.60;99.90
22112;DHT22;11222;50.872;4.312;2022-12-05T17:28:47;6.60;99.90
22112;DHT22;11222;50.872;4.312;2022-12-05T17:31:21;6.60;99.90
22112;DHT22;11222;50.872;4.312;2022-12-05T17:33:48;6.60;99.90
22112;DHT22;11222;50.872;4.312;2022-12-05T17:36:15;6.60;99.90
22112;DHT22;11222;50.872;4.312;2022-12-05T17:38:42;6.70;99.90
22112;DHT22;11222;50.872;4.312;2022-12-05T17:41:15;6.70;99.90
22112;DHT22;11222;50.872;4.312;2022-12-05T17:43:41;6.70;99.90
22112;DHT22;11222;50.872;4.312;2022-12-05T17:46:08;6.80;99.90
22112;DHT22;11222;50.872;4.312;2022-12-05T17:48:34;6.80;99.90
22112;DHT22;11222;50.872;4.312;2022-12-05T17:51:00;6.80;99.90
22112;DHT22;11222;50.872;4.312;2022-12-05T17:53:27;6.80;99.90
22112;DHT22;11222;50.872;4.312;2022-12-05T17:55:53;6.80;99.90
22112;DHT22;11222;50.872;4.312;2022-12-05T17:58:18;6.70;99.90
22112;DHT22;11222;50.872;4.312;2022-12-05T18:00:45;6.70;99.90
22112;DHT22;11222;50.872;4.312;2022-12-05T18:03:16;6.70;99.90
22112;DHT22;11222;50.872;4.312;2022-12-05T18:05:42;6.70;99.90
22112;DHT22;11222;50.872;4.312;2022-12-05T18:08:08;6.60;99.90
22112;DHT22;11222;50.872;4.312;2022-12-05T18:10:34;6.50;99.90
22112;DHT22;11222;50.872;4.312;2022-12-05T18:13:00;6.50;99.90
22112;DHT22;11222;50.872;4.312;2022-12-05T18:15:25;6.60;99.90
22112;DHT22;11222;50.872;4.312;2022-12-05T18:17:51;6.60;99.90
22112;DHT22;11222;50.872;4.312;2022-12-05T18:20:17;6.60;99.90
22112;DHT22;11222;50.872;4.312;2022-12-05T18:22:43;6.50;99.90
22112;DHT22;11222;50.872;4.312;2022-12-05T18:25:10;6.60;99.90
22112;DHT22;11222;50.872;4.312;2022-12-05T18:27:36;6.70;99.90
22112;DHT22;11222;50.872;4.312;2022-12-05T18:30:04;6.70;99.90
22112;DHT22;11222;50.872;4.312;2022-12-05T18:32:30;6.70;99.90
22112;DHT22;11222;50.872;4.312;2022-12-05T18:34:56;6.70;99.90
22112;DHT22;11222;50.872;4.312;2022-12-05T18:37:26;6.70;99.90
22112;DHT22;11222;50.872;4.312;2022-12-05T18:39:56;6.50;99.90